createdAt,value
2023-02-02T00:01:48.382Z,0.57
2023-02-02T00:04:19.253Z,0.60
2023-02-02T00:06:46.174Z,0.50
2023-02-02T00:09:13.982Z,0.60
2023-02-02T00:11:40.698Z,0.98
2023-02-02T00:14:10.195Z,1.40
2023-02-02T00:16:38.272Z,0.45
2023-02-02T00:19:09.718Z,0.45
2023-02-02T00:21:36.683Z,0.50
2023-02-02T00:24:03.265Z,0.95
2023-02-02T00:26:29.763Z,0.90
2023-02-02T00:28:56.277Z,1.00
2023-02-02T00:31:23.198Z,0.60
2023-02-02T00:33:50.465Z,0.85
2023-02-02T00:36:17.339Z,0.65
2023-02-02T00:38:44.059Z,2.63
2023-02-02T00:41:10.513Z,1.15
2023-02-02T00:43:37.045Z,1.33
2023-02-02T00:46:03.691Z,0.63
2023-02-02T00:48:30.184Z,1.10
2023-02-02T00:50:57.401Z,0.70
2023-02-02T00:53:24.031Z,0.65
2023-02-02T00:55:50.494Z,0.63
2023-02-02T00:58:16.987Z,0.75
2023-02-02T01:00:43.583Z,0.85
2023-02-02T01:03:10.377Z,0.82
2023-02-02T01:05:36.843Z,1.35
2023-02-02T01:08:03.350Z,0.70
2023-02-02T01:10:29.886Z,0.43
2023-02-02T01:12:56.402Z,2.20
2023-02-02T01:15:23.143Z,0.80
2023-02-02T01:17:49.838Z,1.73
2023-02-02T01:20:18.454Z,1.42
2023-02-02T01:22:45.342Z,0.70
2023-02-02T01:25:11.784Z,0.80
2023-02-02T01:27:38.275Z,1.65
2023-02-02T01:30:05.055Z,0.63
2023-02-02T01:32:31.514Z,0.60
2023-02-02T01:34:58.069Z,0.60
2023-02-02T01:37:24.631Z,0.65
2023-02-02T01:39:51.079Z,0.85
2023-02-02T01:42:20.940Z,0.70
2023-02-02T01:44:59.434Z,0.30
2023-02-02T01:47:27.212Z,0.50
2023-02-02T01:49:54.337Z,0.40
2023-02-02T01:52:22.667Z,0.40
2023-02-02T01:54:51.788Z,0.50
2023-02-02T01:57:24.859Z,0.40
2023-02-02T01:59:52.609Z,0.43
2023-02-02T02:02:19.371Z,0.32
2023-02-02T02:04:46.079Z,0.40
2023-02-02T02:07:12.556Z,0.50
2023-02-02T02:09:39.265Z,0.52
2023-02-02T02:12:13.446Z,0.40
2023-02-02T02:14:58.928Z,0.40
2023-02-02T02:17:37.292Z,0.43
2023-02-02T02:20:31.403Z,0.30
2023-02-02T02:23:19.366Z,0.32
2023-02-02T02:26:23.208Z,0.50
2023-02-02T02:29:04.460Z,0.77
2023-02-02T02:31:37.041Z,0.60
2023-02-02T02:34:03.571Z,0.65
2023-02-02T02:36:30.020Z,0.43
2023-02-02T02:39:08.496Z,0.55
2023-02-02T02:41:38.083Z,0.80
2023-02-02T02:44:06.758Z,0.80
2023-02-02T02:46:33.855Z,0.55
2023-02-02T02:49:01.177Z,0.40
2023-02-02T02:51:39.778Z,0.40
2023-02-02T02:54:06.535Z,0.43
2023-02-02T02:56:41.089Z,0.47
2023-02-02T02:59:17.442Z,0.70
2023-02-02T03:02:04.200Z,0.40
2023-02-02T03:04:39.829Z,0.40
2023-02-02T03:07:27.867Z,0.35
2023-02-02T03:09:56.356Z,0.35
2023-02-02T03:12:23.365Z,0.30
2023-02-02T03:14:49.925Z,0.85
2023-02-02T03:17:16.376Z,0.60
2023-02-02T03:19:42.828Z,0.30
2023-02-02T03:22:09.312Z,0.40
2023-02-02T03:24:35.811Z,0.75
2023-02-02T03:27:02.320Z,0.55
2023-02-02T03:29:29.420Z,0.40
2023-02-02T03:31:55.907Z,0.40
2023-02-02T03:34:22.400Z,0.40
2023-02-02T03:36:48.879Z,0.30
2023-02-02T03:39:15.352Z,0.60
2023-02-02T03:41:41.843Z,0.70
2023-02-02T03:44:08.315Z,0.50
2023-02-02T03:46:35.438Z,0.57
2023-02-02T03:49:02.030Z,0.60
2023-02-02T03:51:28.527Z,0.85
2023-02-02T03:53:55.035Z,0.60
2023-02-02T03:56:21.534Z,0.60
2023-02-02T03:58:48.126Z,0.60
2023-02-02T04:01:15.074Z,0.65
2023-02-02T04:03:41.796Z,0.63
2023-02-02T04:06:08.402Z,0.80
2023-02-02T04:08:34.876Z,0.90
2023-02-02T04:11:01.457Z,0.90
2023-02-02T04:13:27.955Z,0.90
2023-02-02T04:15:58.354Z,0.70
2023-02-02T04:18:24.848Z,0.80
2023-02-02T04:20:55.648Z,0.93
2023-02-02T04:23:22.148Z,0.85
2023-02-02T04:25:49.137Z,1.00
2023-02-02T04:28:15.618Z,0.60
2023-02-02T04:30:42.196Z,0.63
2023-02-02T04:33:08.772Z,1.08
2023-02-02T04:35:35.266Z,1.48
2023-02-02T04:38:01.729Z,0.65
2023-02-02T04:40:28.342Z,0.88
2023-02-02T04:42:54.813Z,0.50
2023-02-02T04:45:21.269Z,0.70
2023-02-02T04:47:47.741Z,0.88
2023-02-02T04:50:14.231Z,0.73
2023-02-02T04:52:40.762Z,1.13
2023-02-02T04:55:07.427Z,0.70
2023-02-02T04:57:33.904Z,0.60
2023-02-02T05:00:00.417Z,0.52
2023-02-02T05:02:26.925Z,0.90
2023-02-02T05:04:53.438Z,0.98
2023-02-02T05:07:20.035Z,0.90
2023-02-02T05:09:46.602Z,0.75
2023-02-02T05:12:13.090Z,1.60
2023-02-02T05:14:39.569Z,0.70
2023-02-02T05:17:06.097Z,0.80
2023-02-02T05:19:32.564Z,0.75
2023-02-02T05:21:59.056Z,0.73
2023-02-02T05:24:26.078Z,0.70
2023-02-02T05:26:54.985Z,1.05
2023-02-02T05:29:21.450Z,0.82
2023-02-02T05:31:48.081Z,0.80
2023-02-02T05:34:14.641Z,1.88
2023-02-02T05:36:41.178Z,0.70
2023-02-02T05:39:07.661Z,0.80
2023-02-02T05:41:34.156Z,0.80
2023-02-02T05:44:00.699Z,0.50
2023-02-02T05:46:27.223Z,0.60
2023-02-02T05:48:53.809Z,0.90
2023-02-02T05:51:21.824Z,0.68
2023-02-02T05:53:48.309Z,0.98
2023-02-02T05:56:15.921Z,0.90
2023-02-02T05:58:42.838Z,0.70
2023-02-02T06:01:10.024Z,0.80
2023-02-02T06:03:36.642Z,0.55
2023-02-02T06:06:05.376Z,1.10
2023-02-02T06:08:33.085Z,0.60
2023-02-02T06:10:59.585Z,0.77
2023-02-02T06:13:26.040Z,0.70
2023-02-02T06:15:52.592Z,0.80
2023-02-02T06:18:19.109Z,0.70
2023-02-02T06:20:47.020Z,0.65
2023-02-02T06:23:13.513Z,0.75
2023-02-02T06:25:40.041Z,0.63
2023-02-02T06:28:07.848Z,0.70
2023-02-02T06:30:34.460Z,0.60
2023-02-02T06:33:01.055Z,0.60
2023-02-02T06:35:27.725Z,0.50
2023-02-02T06:37:54.504Z,0.60
2023-02-02T06:40:20.968Z,0.77
2023-02-02T06:42:47.427Z,0.57
2023-02-02T06:45:13.922Z,0.50
2023-02-02T06:47:40.518Z,0.77
2023-02-02T06:50:07.221Z,0.50
2023-02-02T06:52:33.689Z,0.47
2023-02-02T06:55:00.188Z,0.30
2023-02-02T06:57:26.701Z,0.47
2023-02-02T06:59:53.168Z,0.30
2023-02-02T07:02:19.790Z,0.50
2023-02-02T07:04:46.345Z,0.40
2023-02-02T07:07:12.908Z,0.40
2023-02-02T07:09:39.412Z,0.50
2023-02-02T07:12:06.095Z,0.40
2023-02-02T07:14:32.559Z,0.45
2023-02-02T07:16:59.021Z,0.70
2023-02-02T07:19:25.514Z,0.43
2023-02-02T07:21:52.092Z,0.50
2023-02-02T07:24:18.579Z,0.93
2023-02-02T07:26:45.121Z,0.60
2023-02-02T07:29:16.370Z,0.52
2023-02-02T07:31:42.971Z,0.70
2023-02-02T07:34:09.617Z,0.50
2023-02-02T07:36:36.209Z,0.40
2023-02-02T07:39:04.893Z,0.60
2023-02-02T07:41:35.352Z,0.60
2023-02-02T07:44:01.890Z,0.30
2023-02-02T07:46:28.414Z,0.45
2023-02-02T07:48:57.961Z,0.40
2023-02-02T07:51:24.985Z,0.65
2023-02-02T07:53:52.816Z,1.00
2023-02-02T07:56:20.772Z,0.90
2023-02-02T07:58:47.403Z,1.05
2023-02-02T08:01:14.926Z,0.90
2023-02-02T08:03:42.974Z,0.70
2023-02-02T08:06:14.721Z,0.90
2023-02-02T08:08:41.235Z,0.82
2023-02-02T08:11:12.722Z,0.60
2023-02-02T08:13:39.488Z,0.80
2023-02-02T08:16:06.637Z,0.60
2023-02-02T08:18:34.026Z,0.50
2023-02-02T08:21:01.319Z,0.73
2023-02-02T08:23:28.263Z,0.60
2023-02-02T08:25:55.856Z,0.57
2023-02-02T08:28:22.323Z,0.40
2023-02-02T08:30:48.873Z,0.30
2023-02-02T08:33:15.570Z,0.30
2023-02-02T08:35:42.965Z,0.50
2023-02-02T08:38:09.624Z,0.40
2023-02-02T08:40:36.234Z,0.52
2023-02-02T08:43:03.844Z,0.38
2023-02-02T08:46:04.371Z,0.43
2023-02-02T08:48:19.900Z,0.30
2023-02-02T08:50:51.567Z,0.30
2023-02-02T08:53:18.087Z,0.43
2023-02-02T08:55:44.575Z,0.30
2023-02-02T08:58:11.054Z,0.50
2023-02-02T09:00:37.571Z,0.30
2023-02-02T09:03:04.514Z,0.35
2023-02-02T09:05:31.324Z,0.47
2023-02-02T09:07:57.888Z,0.30
2023-02-02T09:10:24.390Z,0.38
2023-02-02T09:12:50.857Z,0.28
2023-02-02T09:15:17.330Z,0.30
2023-02-02T09:17:43.812Z,0.30
2023-02-02T09:20:10.636Z,0.40
2023-02-02T09:22:37.082Z,0.38
2023-02-02T09:25:03.612Z,0.40
2023-02-02T09:27:30.104Z,0.30
2023-02-02T09:29:56.612Z,0.28
2023-02-02T09:32:23.102Z,0.35
2023-02-02T09:34:49.553Z,0.30
2023-02-02T09:37:16.051Z,0.40
2023-02-02T09:39:42.556Z,0.40
2023-02-02T09:42:23.083Z,1.00
2023-02-02T09:45:04.714Z,0.30
2023-02-02T09:47:42.372Z,0.30
2023-02-02T09:50:11.708Z,0.32
2023-02-02T09:52:42.451Z,0.30
2023-02-02T09:55:09.010Z,0.30
2023-02-02T09:57:38.268Z,0.40
2023-02-02T10:00:06.516Z,0.38
2023-02-02T10:02:53.173Z,0.40
2023-02-02T10:05:22.961Z,0.50
2023-02-02T10:07:51.935Z,0.63
2023-02-02T10:10:23.249Z,0.52
2023-02-02T10:13:06.912Z,0.30
2023-02-02T10:15:42.266Z,0.45
2023-02-02T10:18:18.481Z,0.47
2023-02-02T10:20:51.404Z,0.55
2023-02-02T10:23:23.950Z,0.47
2023-02-02T10:26:06.006Z,0.60
2023-02-02T10:28:57.002Z,0.40
2023-02-02T10:31:29.343Z,0.50
2023-02-02T10:34:16.169Z,0.30
2023-02-02T10:36:54.873Z,0.47
2023-02-02T10:39:27.317Z,0.40
2023-02-02T10:42:02.776Z,0.40
2023-02-02T10:44:49.603Z,0.30
2023-02-02T10:47:34.439Z,0.60
2023-02-02T10:50:01.359Z,0.70
2023-02-02T10:52:34.197Z,0.40
2023-02-02T10:55:16.085Z,0.43
2023-02-02T10:57:48.643Z,0.38
2023-02-02T11:00:23.588Z,0.47
2023-02-02T11:02:51.283Z,0.45
2023-02-02T11:05:38.984Z,0.43
2023-02-02T11:08:11.328Z,0.50
2023-02-02T11:10:37.845Z,0.30
2023-02-02T11:13:06.225Z,0.57
2023-02-02T11:15:32.747Z,0.45
2023-02-02T11:18:35.003Z,0.50
2023-02-02T11:21:01.620Z,0.40
2023-02-02T11:23:28.814Z,0.40
2023-02-02T11:25:59.838Z,0.50
2023-02-02T11:28:30.405Z,0.50
2023-02-02T11:30:57.617Z,0.40
2023-02-02T11:33:33.592Z,0.65
2023-02-02T11:36:01.612Z,0.32
2023-02-02T11:38:28.660Z,0.40
2023-02-02T11:41:04.025Z,0.35
2023-02-02T11:43:30.604Z,0.40
2023-02-02T11:46:01.628Z,0.40
2023-02-02T11:48:37.341Z,0.35
2023-02-02T11:51:05.226Z,0.30
2023-02-02T11:53:33.442Z,0.30
2023-02-02T11:56:02.257Z,0.35
2023-02-02T11:58:29.944Z,0.40
2023-02-02T12:00:58.337Z,0.38
2023-02-02T12:03:25.036Z,0.30
2023-02-02T12:05:51.525Z,0.40
2023-02-02T12:08:18.060Z,0.22
2023-02-02T12:10:54.833Z,0.35
2023-02-02T12:13:27.212Z,0.57
2023-02-02T12:16:03.499Z,0.50
2023-02-02T12:18:29.995Z,0.30
2023-02-02T12:20:56.549Z,0.20
2023-02-02T12:23:23.012Z,0.40
2023-02-02T12:25:56.000Z,0.20
2023-02-02T12:28:40.640Z,0.45
2023-02-02T12:31:15.460Z,0.20
2023-02-02T12:33:47.858Z,0.30
2023-02-02T12:36:17.525Z,0.38
2023-02-02T12:38:47.033Z,0.20
2023-02-02T12:41:13.501Z,0.17
2023-02-02T12:43:41.768Z,0.25
2023-02-02T12:46:14.646Z,0.28
2023-02-02T12:48:44.150Z,0.20
2023-02-02T12:51:19.764Z,0.30
2023-02-02T12:54:35.091Z,0.10
2023-02-02T12:56:47.129Z,0.17
2023-02-02T12:59:16.452Z,0.30
2023-02-02T13:01:42.896Z,0.50
2023-02-02T13:04:36.081Z,0.30
2023-02-02T13:07:26.577Z,0.65
2023-02-02T13:10:02.153Z,0.65
2023-02-02T13:12:29.902Z,0.55
2023-02-02T13:14:58.152Z,0.50
2023-02-02T13:17:27.671Z,0.50
2023-02-02T13:19:56.606Z,0.30
2023-02-02T13:22:32.698Z,0.50
2023-02-02T13:25:01.408Z,0.35
2023-02-02T13:27:28.715Z,0.47
2023-02-02T13:30:02.297Z,0.63
2023-02-02T13:32:31.985Z,0.80
2023-02-02T13:35:04.645Z,1.00
2023-02-02T13:37:42.692Z,0.70
2023-02-02T13:40:18.062Z,0.57
2023-02-02T13:42:56.479Z,0.80
2023-02-02T13:45:41.477Z,1.63
2023-02-02T13:48:34.269Z,0.82
2023-02-02T13:51:19.636Z,0.68
2023-02-02T13:53:58.135Z,0.60
2023-02-02T13:56:33.216Z,0.68
2023-02-02T13:59:19.991Z,0.47
2023-02-02T14:01:48.784Z,0.60
2023-02-02T14:04:27.336Z,0.50
2023-02-02T14:09:33.384Z,0.80
2023-02-02T14:12:02.313Z,0.68
2023-02-02T14:14:33.306Z,0.85
2023-02-02T14:17:01.344Z,0.70
2023-02-02T14:19:27.817Z,0.98
2023-02-02T14:22:09.804Z,1.08
2023-02-02T14:24:36.319Z,0.60
2023-02-02T14:27:08.949Z,0.52
2023-02-02T14:29:58.195Z,0.60
2023-02-02T14:32:24.948Z,0.68
2023-02-02T14:34:53.689Z,0.52
2023-02-02T14:37:20.627Z,0.60
2023-02-02T14:39:50.216Z,0.60
2023-02-02T14:42:53.965Z,0.60
2023-02-02T14:45:28.295Z,0.43
2023-02-02T14:47:56.631Z,0.63
2023-02-02T14:50:44.977Z,0.57
2023-02-02T14:53:31.766Z,0.40
2023-02-02T14:56:24.556Z,0.50
2023-02-02T14:59:01.527Z,0.50
2023-02-02T15:01:37.586Z,0.43
2023-02-02T15:04:33.377Z,0.75
2023-02-02T15:07:19.769Z,0.68
2023-02-02T15:09:46.295Z,0.70
2023-02-02T15:12:16.213Z,1.35
2023-02-02T15:14:56.156Z,0.70
2023-02-02T15:17:44.605Z,0.50
2023-02-02T15:20:14.010Z,0.40
2023-02-02T15:22:46.773Z,0.38
2023-02-02T15:25:22.361Z,0.40
2023-02-02T15:27:56.952Z,0.50
2023-02-02T15:30:24.330Z,0.63
2023-02-02T15:32:51.343Z,0.52
2023-02-02T15:35:20.098Z,0.73
2023-02-02T15:37:49.678Z,0.38
2023-02-02T15:40:20.514Z,0.75
2023-02-02T15:42:53.112Z,0.52
2023-02-02T15:45:33.222Z,0.50
2023-02-02T15:48:00.598Z,0.55
2023-02-02T15:50:27.554Z,0.30
2023-02-02T15:52:54.819Z,0.30
2023-02-02T15:55:22.941Z,0.70
2023-02-02T15:57:54.045Z,0.63
2023-02-02T16:00:23.704Z,0.88
2023-02-02T16:02:52.859Z,0.57
2023-02-02T16:05:24.200Z,0.60
2023-02-02T16:08:05.069Z,0.60
2023-02-02T16:10:33.128Z,0.88
2023-02-02T16:12:59.645Z,0.28
2023-02-02T16:15:28.378Z,0.50
2023-02-02T16:18:02.184Z,0.73
2023-02-02T16:20:29.586Z,0.35
2023-02-02T16:22:57.610Z,0.80
2023-02-02T16:25:24.371Z,0.75
2023-02-02T16:27:53.050Z,0.60
2023-02-02T16:30:25.553Z,0.45
2023-02-02T16:32:52.128Z,0.30
2023-02-02T16:35:38.592Z,0.73
2023-02-02T16:38:14.808Z,0.50
2023-02-02T16:40:41.739Z,0.40
2023-02-02T16:43:28.629Z,0.50
2023-02-02T16:46:07.461Z,0.70
2023-02-02T16:48:35.558Z,1.10
2023-02-02T16:51:07.902Z,1.20
2023-02-02T16:53:35.201Z,1.33
2023-02-02T16:56:02.810Z,1.00
2023-02-02T16:58:29.426Z,0.80
2023-02-02T17:01:15.370Z,0.63
2023-02-02T17:03:48.960Z,0.73
2023-02-02T17:06:15.504Z,1.10
2023-02-02T17:08:42.075Z,1.00
2023-02-02T17:11:27.483Z,1.77
2023-02-02T17:13:54.643Z,0.60
2023-02-02T17:16:22.375Z,0.52
2023-02-02T17:18:49.537Z,0.98
2023-02-02T17:21:24.209Z,0.80
2023-02-02T17:23:51.612Z,0.88
2023-02-02T17:26:18.265Z,0.47
2023-02-02T17:28:44.913Z,0.40
2023-02-02T17:31:16.037Z,0.50
2023-02-02T17:33:43.568Z,0.70
2023-02-02T17:36:12.037Z,0.60
2023-02-02T17:38:39.491Z,0.70
2023-02-02T17:41:06.311Z,0.70
2023-02-02T17:43:33.307Z,0.77
2023-02-02T17:46:00.014Z,0.50
2023-02-02T17:48:26.572Z,0.40
2023-02-02T17:50:53.068Z,0.70
2023-02-02T17:53:20.639Z,0.50
2023-02-02T17:55:48.032Z,0.98
2023-02-02T17:58:17.250Z,0.90
2023-02-02T18:00:45.448Z,0.77
2023-02-02T18:03:13.169Z,1.20
2023-02-02T18:05:42.087Z,1.20
2023-02-02T18:08:10.257Z,1.10
2023-02-02T18:10:37.984Z,1.05
2023-02-02T18:13:04.641Z,1.35
2023-02-02T18:15:31.196Z,1.35
2023-02-02T18:17:57.702Z,1.02
2023-02-02T18:20:24.244Z,1.33
2023-02-02T18:22:51.672Z,1.40
2023-02-02T18:25:18.187Z,1.10
2023-02-02T18:27:44.780Z,0.77
2023-02-02T18:30:11.646Z,0.52
2023-02-02T18:32:39.220Z,1.33
2023-02-02T18:35:06.791Z,0.80
2023-02-02T18:37:33.294Z,0.60
2023-02-02T18:39:59.769Z,0.77
2023-02-02T18:42:30.428Z,0.50
2023-02-02T18:44:57.056Z,0.65
2023-02-02T18:47:23.572Z,0.93
2023-02-02T18:49:50.239Z,1.10
2023-02-02T18:52:19.008Z,0.90
2023-02-02T18:54:48.501Z,0.70
2023-02-02T18:57:15.627Z,1.15
2023-02-02T18:59:42.403Z,1.40
2023-02-02T19:02:16.431Z,1.05
2023-02-02T19:05:02.961Z,1.13
2023-02-02T19:07:48.249Z,0.90
2023-02-02T19:10:14.914Z,1.00
2023-02-02T19:12:41.421Z,0.90
2023-02-02T19:15:12.871Z,0.90
2023-02-02T19:17:39.973Z,1.10
2023-02-02T19:20:17.593Z,0.82
2023-02-02T19:22:44.167Z,1.00
2023-02-02T19:25:11.404Z,0.57
2023-02-02T19:27:37.935Z,0.60
2023-02-02T19:30:09.187Z,0.63
2023-02-02T19:32:36.626Z,0.80
2023-02-02T19:35:07.596Z,0.68
2023-02-02T19:37:37.682Z,0.45
2023-02-02T19:42:41.405Z,1.10
2023-02-02T19:45:19.880Z,1.30
2023-02-02T19:47:46.475Z,0.70
2023-02-02T19:50:18.544Z,0.70
2023-02-02T19:52:46.373Z,0.60
2023-02-02T19:55:23.186Z,0.75
2023-02-02T19:57:50.703Z,1.92
2023-02-02T20:00:23.110Z,0.65
2023-02-02T20:02:58.420Z,0.60
2023-02-02T20:05:29.757Z,0.65
2023-02-02T20:07:59.270Z,0.60
2023-02-02T20:10:37.201Z,0.45
2023-02-02T20:13:12.625Z,0.70
2023-02-02T20:15:39.336Z,0.70
2023-02-02T20:18:11.600Z,0.90
2023-02-02T20:20:39.708Z,1.00
2023-02-02T20:23:18.929Z,1.77
2023-02-02T20:25:45.663Z,2.08
2023-02-02T20:28:45.135Z,1.20
2023-02-02T20:31:14.203Z,2.40
2023-02-02T20:33:45.649Z,1.73
2023-02-02T20:36:35.449Z,1.10
2023-02-02T20:42:07.775Z,0.90
2023-02-02T20:44:34.822Z,1.27
2023-02-02T20:47:01.422Z,0.70
2023-02-02T20:49:28.899Z,2.00
2023-02-02T20:51:58.735Z,6.18
2023-02-02T20:54:25.971Z,1.40
2023-02-02T20:56:52.729Z,4.82
2023-02-02T20:59:20.227Z,1.65
2023-02-02T21:01:47.209Z,1.00
2023-02-02T21:04:13.703Z,1.58
2023-02-02T21:06:40.537Z,7.25
2023-02-02T21:09:08.169Z,1.02
2023-02-02T21:11:34.728Z,0.70
2023-02-02T21:14:01.283Z,2.78
2023-02-02T21:16:28.305Z,2.72
2023-02-02T21:18:54.878Z,1.73
2023-02-02T21:21:22.781Z,7.72
2023-02-02T21:23:51.664Z,14.93
2023-02-02T21:28:50.970Z,11.65
2023-02-02T21:31:17.853Z,9.65
2023-02-02T21:33:45.336Z,1.77
2023-02-02T21:36:21.070Z,3.00
2023-02-02T21:38:47.551Z,1.42
2023-02-02T21:41:14.485Z,5.40
2023-02-02T21:43:41.271Z,3.45
2023-02-02T21:46:24.734Z,4.07
2023-02-02T21:48:51.594Z,4.50
2023-02-02T21:51:18.073Z,3.13
2023-02-02T21:53:44.589Z,15.65
2023-02-02T21:56:21.042Z,8.90
2023-02-02T21:58:47.653Z,2.58
2023-02-02T22:01:21.904Z,6.20
2023-02-02T22:03:49.977Z,1.25
2023-02-02T22:06:16.519Z,1.83
2023-02-02T22:08:43.027Z,0.95
2023-02-02T22:11:31.709Z,2.88
2023-02-02T22:14:12.783Z,3.60
2023-02-02T22:16:41.483Z,4.28
2023-02-02T22:19:23.260Z,3.40
2023-02-02T22:21:49.735Z,3.72
2023-02-02T22:24:17.814Z,0.60
2023-02-02T22:26:44.376Z,1.48
2023-02-02T22:29:16.367Z,2.88
2023-02-02T22:31:43.105Z,0.90
2023-02-02T22:34:09.696Z,2.20
2023-02-02T22:36:36.161Z,4.80
2023-02-02T22:39:02.644Z,4.63
2023-02-02T22:41:29.213Z,2.50
2023-02-02T22:43:56.043Z,0.50
2023-02-02T22:46:22.723Z,2.58
2023-02-02T22:48:50.108Z,5.13
2023-02-02T22:51:16.640Z,7.60
2023-02-02T22:53:43.317Z,2.63
2023-02-02T22:56:09.803Z,0.40
2023-02-02T22:58:36.258Z,0.35
2023-02-02T23:01:02.714Z,1.42
2023-02-02T23:03:29.241Z,0.65
2023-02-02T23:05:55.699Z,0.68
2023-02-02T23:08:22.168Z,0.55
2023-02-02T23:10:48.656Z,1.30
2023-02-02T23:13:15.184Z,0.95
2023-02-02T23:15:41.734Z,1.60
2023-02-02T23:18:08.294Z,2.53
2023-02-02T23:20:34.832Z,1.83
2023-02-02T23:23:01.575Z,2.60
2023-02-02T23:25:28.134Z,3.88
2023-02-02T23:27:54.655Z,2.65
2023-02-02T23:30:24.428Z,3.58
2023-02-02T23:32:51.365Z,2.97
2023-02-02T23:35:17.922Z,3.60
2023-02-02T23:37:44.399Z,3.58
2023-02-02T23:40:11.403Z,3.55
2023-02-02T23:42:37.949Z,4.20
2023-02-02T23:45:04.709Z,3.85
2023-02-02T23:47:32.648Z,4.80
2023-02-02T23:49:59.225Z,4.30
2023-02-02T23:52:25.711Z,4.43
2023-02-02T23:54:52.933Z,4.90
2023-02-02T23:57:19.619Z,4.60
2023-02-02T23:59:46.068Z,4.85
